Time;durP1;ratioP1;P1;durP2;ratioP2;P2;SDS_P1;SDS_P2;PMS_P1;PMS_P2;Temp;Humidity;BMP_temperature;BMP_pressure;BME280_temperature;BME280_humidity;BME280_pressure;Samples;Min_cycle;Max_cycle;Signal;HPM_P1;HPM_P2
2023/02/04 00:00:10;;;;;;;0.73;0.30;;;;;;;;;;5046297;28;20059;-70
2023/02/04 00:02:37;;;;;;;0.80;0.30;;;;;;;;;;5047421;28;20021;-70
2023/02/04 00:05:03;;;;;;;0.17;0.17;;;;;;;;;;5047433;28;20033;-70
2023/02/04 00:07:29;;;;;;;0.25;0.20;;;;;;;;;;5047343;28;20025;-70
2023/02/04 00:09:55;;;;;;;0.20;0.20;;;;;;;;;;5047210;28;20033;-70
2023/02/04 00:12:21;;;;;;;0.20;0.20;;;;;;;;;;5047028;28;20103;-70
2023/02/04 00:14:47;;;;;;;0.47;0.30;;;;;;;;;;5047212;28;20473;-69
2023/02/04 00:17:13;;;;;;;0.40;0.20;;;;;;;;;;5046961;28;20413;-69
2023/02/04 00:19:39;;;;;;;0.10;0.10;;;;;;;;;;5039214;28;20402;-69
2023/02/04 00:22:06;;;;;;;0.20;0.20;;;;;;;;;;5026684;28;20025;-69
2023/02/04 00:24:32;;;;;;;0.30;0.30;;;;;;;;;;5027147;28;20022;-70
2023/02/04 00:26:58;;;;;;;0.47;0.30;;;;;;;;;;5020471;28;20026;-69
2023/02/04 00:29:24;;;;;;;0.30;0.30;;;;;;;;;;5047128;28;20444;-70
2023/02/04 00:31:50;;;;;;;1.13;0.25;;;;;;;;;;5046856;28;20444;-69
2023/02/04 00:34:17;;;;;;;0.30;0.30;;;;;;;;;;5046760;28;20025;-69
2023/02/04 00:36:43;;;;;;;0.38;0.30;;;;;;;;;;5046715;28;20045;-69
2023/02/04 00:39:09;;;;;;;0.22;0.22;;;;;;;;;;5046533;28;20055;-69
2023/02/04 00:41:35;;;;;;;0.35;0.25;;;;;;;;;;5046778;28;20457;-69
2023/02/04 00:44:01;;;;;;;0.45;0.20;;;;;;;;;;5046727;28;20025;-69
2023/02/04 00:46:27;;;;;;;0.47;0.10;;;;;;;;;;5046614;28;20262;-69
2023/02/04 00:48:53;;;;;;;0.55;0.30;;;;;;;;;;5046764;28;20022;-69
2023/02/04 00:51:19;;;;;;;0.10;0.10;;;;;;;;;;5046336;28;20036;-69
2023/02/04 00:53:45;;;;;;;0.28;0.25;;;;;;;;;;5046353;28;20045;-69
2023/02/04 00:56:11;;;;;;;0.22;0.22;;;;;;;;;;5046015;28;20021;-70
2023/02/04 00:58:37;;;;;;;0.20;0.20;;;;;;;;;;5046435;28;20029;-69
2023/02/04 01:01:03;;;;;;;0.20;0.20;;;;;;;;;;5045992;28;20041;-70
2023/02/04 01:03:29;;;;;;;0.50;0.40;;;;;;;;;;5045876;28;20025;-69
2023/02/04 01:05:55;;;;;;;0.30;0.20;;;;;;;;;;5046328;28;20021;-69
2023/02/04 01:08:21;;;;;;;1.27;0.22;;;;;;;;;;5046036;28;20036;-68
2023/02/04 01:10:47;;;;;;;0.32;0.32;;;;;;;;;;5046152;28;20028;-69
2023/02/04 01:13:13;;;;;;;0.43;0.20;;;;;;;;;;5049647;28;20021;-69
2023/02/04 01:15:39;;;;;;;0.95;0.30;;;;;;;;;;5050234;28;20029;-69
2023/02/04 01:18:05;;;;;;;1.27;0.50;;;;;;;;;;5050079;28;20389;-69
2023/02/04 01:20:31;;;;;;;0.30;0.30;;;;;;;;;;5034635;28;20021;-69
2023/02/04 01:22:57;;;;;;;0.13;0.13;;;;;;;;;;5030489;28;20021;-69
2023/02/04 01:25:22;;;;;;;0.22;0.20;;;;;;;;;;5029627;28;20728;-69
2023/02/04 01:27:48;;;;;;;0.25;0.25;;;;;;;;;;5031029;28;20029;-69
2023/02/04 01:30:15;;;;;;;0.10;0.10;;;;;;;;;;5049622;28;20083;-69
2023/02/04 01:32:41;;;;;;;0.40;0.30;;;;;;;;;;5050343;28;20045;-68
2023/02/04 01:35:07;;;;;;;0.22;0.10;;;;;;;;;;5050004;28;20496;-69
2023/02/04 01:37:33;;;;;;;0.20;0.20;;;;;;;;;;5050247;28;20112;-69
2023/02/04 01:39:59;;;;;;;0.20;0.20;;;;;;;;;;5049875;28;20116;-70
2023/02/04 01:42:25;;;;;;;0.63;0.20;;;;;;;;;;5049821;28;20336;-70
2023/02/04 01:44:52;;;;;;;0.20;0.20;;;;;;;;;;5049948;28;20032;-69
2023/02/04 01:47:18;;;;;;;0.90;0.38;;;;;;;;;;5048671;28;20366;-69
2023/02/04 01:49:52;;;;;;;0.20;0.20;;;;;;;;;;5049080;28;20108;-69
2023/02/04 01:52:18;;;;;;;0.15;0.15;;;;;;;;;;5048815;28;20717;-69
2023/02/04 01:54:44;;;;;;;0.10;0.10;;;;;;;;;;5049105;28;20155;-69
2023/02/04 01:57:13;;;;;;;0.63;0.22;;;;;;;;;;5049412;28;20408;-69
2023/02/04 01:59:41;;;;;;;0.30;0.30;;;;;;;;;;5048828;28;20391;-69
2023/02/04 02:02:27;;;;;;;0.43;0.32;;;;;;;;;;5047254;28;20077;-69
2023/02/04 02:04:53;;;;;;;0.10;0.10;;;;;;;;;;5035644;28;20110;-69
2023/02/04 02:07:19;;;;;;;0.75;0.30;;;;;;;;;;5049002;28;20124;-70
2023/02/04 02:09:45;;;;;;;0.30;0.30;;;;;;;;;;5049226;28;20146;-69
2023/02/04 02:12:11;;;;;;;0.20;0.20;;;;;;;;;;5049238;28;20040;-70
2023/02/04 02:14:37;;;;;;;0.15;0.15;;;;;;;;;;5049608;28;20270;-70
2023/02/04 02:17:03;;;;;;;0.65;0.20;;;;;;;;;;5049543;28;20470;-70
2023/02/04 02:19:33;;;;;;;0.22;0.22;;;;;;;;;;5042374;28;20037;-69
2023/02/04 02:22:07;;;;;;;0.20;0.20;;;;;;;;;;5029034;28;20044;-70
2023/02/04 02:24:34;;;;;;;0.50;0.20;;;;;;;;;;5028350;28;20227;-70
2023/02/04 02:27:03;;;;;;;0.20;0.20;;;;;;;;;;5023617;28;20021;-70
2023/02/04 02:29:29;;;;;;;0.32;0.20;;;;;;;;;;5048938;28;20060;-70
2023/02/04 02:31:56;;;;;;;0.20;0.20;;;;;;;;;;5049136;28;20029;-70
2023/02/04 02:34:22;;;;;;;0.10;0.10;;;;;;;;;;5048865;28;20072;-70
2023/02/04 02:36:48;;;;;;;0.20;0.20;;;;;;;;;;5049150;28;20103;-70
2023/02/04 02:39:14;;;;;;;0.68;0.25;;;;;;;;;;5049061;28;20513;-70
2023/02/04 02:41:40;;;;;;;0.20;0.20;;;;;;;;;;5048658;28;20566;-69
2023/02/04 02:44:06;;;;;;;0.43;0.40;;;;;;;;;;5048522;28;20025;-70
2023/02/04 02:46:32;;;;;;;0.30;0.20;;;;;;;;;;5047795;28;20025;-69
2023/02/04 02:48:59;;;;;;;0.17;0.17;;;;;;;;;;5047766;28;20029;-69
2023/02/04 02:51:25;;;;;;;0.35;0.30;;;;;;;;;;5047753;28;21054;-69
2023/02/04 02:53:51;;;;;;;1.23;0.30;;;;;;;;;;5047688;28;20041;-69
2023/02/04 02:56:18;;;;;;;0.20;0.20;;;;;;;;;;5047252;28;20071;-69
2023/02/04 02:58:45;;;;;;;0.40;0.20;;;;;;;;;;5047449;28;20029;-69
2023/02/04 03:01:11;;;;;;;0.20;0.20;;;;;;;;;;5047110;28;20044;-70
2023/02/04 03:03:39;;;;;;;0.10;0.10;;;;;;;;;;5047551;28;20048;-69
2023/02/04 03:06:13;;;;;;;0.60;0.20;;;;;;;;;;5047022;28;20025;-70
2023/02/04 03:08:40;;;;;;;0.15;0.15;;;;;;;;;;5047820;28;20111;-69
2023/02/04 03:11:06;;;;;;;0.22;0.20;;;;;;;;;;5047264;28;20465;-70
2023/02/04 03:13:32;;;;;;;0.10;0.10;;;;;;;;;;5047682;28;20029;-70
2023/02/04 03:15:59;;;;;;;0.17;0.17;;;;;;;;;;5047282;28;20033;-70
2023/02/04 03:18:25;;;;;;;0.10;0.10;;;;;;;;;;5047136;28;20090;-70
2023/02/04 03:20:51;;;;;;;0.10;0.10;;;;;;;;;;5020840;28;20564;-69
2023/02/04 03:23:19;;;;;;;0.30;0.30;;;;;;;;;;5047847;28;20064;-69
2023/02/04 03:25:45;;;;;;;0.08;0.08;;;;;;;;;;5046828;28;20029;-70
2023/02/04 03:28:11;;;;;;;0.20;0.20;;;;;;;;;;5027439;28;20029;-70
2023/02/04 03:30:36;;;;;;;4.70;0.30;;;;;;;;;;5027394;28;20546;-71
2023/02/04 03:33:02;;;;;;;0.28;0.28;;;;;;;;;;5027740;28;20509;-69
2023/02/04 03:35:28;;;;;;;0.70;0.20;;;;;;;;;;5027380;28;20041;-70
2023/02/04 03:37:54;;;;;;;0.20;0.20;;;;;;;;;;5026549;28;20132;-68
2023/02/04 03:40:20;;;;;;;0.10;0.10;;;;;;;;;;5026887;28;20021;-69
2023/02/04 03:42:46;;;;;;;0.20;0.20;;;;;;;;;;5026903;28;20030;-69
2023/02/04 03:45:12;;;;;;;0.20;0.20;;;;;;;;;;5027180;28;20055;-69
2023/02/04 03:47:38;;;;;;;0.20;0.20;;;;;;;;;;5027382;28;20056;-69
2023/02/04 03:50:04;;;;;;;0.20;0.10;;;;;;;;;;5026100;28;20017;-69
2023/02/04 03:52:30;;;;;;;0.10;0.10;;;;;;;;;;5026513;28;20022;-70
2023/02/04 03:54:56;;;;;;;0.45;0.30;;;;;;;;;;5027342;28;20021;-69
2023/02/04 03:57:22;;;;;;;0.95;0.20;;;;;;;;;;5027673;28;20021;-68
2023/02/04 03:59:48;;;;;;;0.10;0.10;;;;;;;;;;5027164;28;20043;-69
2023/02/04 04:02:14;;;;;;;0.22;0.22;;;;;;;;;;5027403;28;20124;-70
2023/02/04 04:04:40;;;;;;;0.35;0.30;;;;;;;;;;5027520;28;20018;-70
2023/02/04 04:07:07;;;;;;;0.13;0.13;;;;;;;;;;5027531;28;20026;-70
2023/02/04 04:09:33;;;;;;;0.28;0.20;;;;;;;;;;5027291;28;20033;-69
2023/02/04 04:11:59;;;;;;;0.10;0.10;;;;;;;;;;5027473;28;20518;-70
2023/02/04 04:14:25;;;;;;;0.13;0.13;;;;;;;;;;5027021;28;20033;-70
2023/02/04 04:16:51;;;;;;;0.20;0.20;;;;;;;;;;5027477;28;20025;-70
2023/02/04 04:19:17;;;;;;;0.25;0.25;;;;;;;;;;5026992;28;20021;-69
2023/02/04 04:21:43;;;;;;;0.60;0.20;;;;;;;;;;5027093;28;20037;-70
2023/02/04 04:24:09;;;;;;;0.95;0.20;;;;;;;;;;5027011;28;20068;-71
2023/02/04 04:26:35;;;;;;;0.17;0.17;;;;;;;;;;5020887;28;20410;-71
2023/02/04 04:29:01;;;;;;;0.20;0.20;;;;;;;;;;5044236;28;20477;-71
2023/02/04 04:31:27;;;;;;;0.57;0.38;;;;;;;;;;5046865;28;20056;-71
2023/02/04 04:33:53;;;;;;;0.20;0.20;;;;;;;;;;5046764;28;20033;-70
2023/02/04 04:36:19;;;;;;;0.45;0.38;;;;;;;;;;5046349;28;20037;-71
2023/02/04 04:38:45;;;;;;;0.30;0.30;;;;;;;;;;5047193;28;20025;-70
2023/02/04 04:41:11;;;;;;;0.20;0.20;;;;;;;;;;5046604;28;20067;-70
2023/02/04 04:43:37;;;;;;;0.25;0.20;;;;;;;;;;5046720;28;20424;-69
2023/02/04 04:46:03;;;;;;;0.10;0.10;;;;;;;;;;5046554;28;20028;-69
2023/02/04 04:48:28;;;;;;;1.65;0.50;;;;;;;;;;5046392;28;20469;-71
2023/02/04 04:50:54;;;;;;;0.10;0.10;;;;;;;;;;5046723;28;20418;-71
2023/02/04 04:53:20;;;;;;;0.20;0.20;;;;;;;;;;5046633;28;20693;-70
2023/02/04 04:55:46;;;;;;;0.32;0.25;;;;;;;;;;5046494;28;20025;-70
2023/02/04 04:58:12;;;;;;;0.10;0.10;;;;;;;;;;5046801;28;20074;-70
2023/02/04 05:00:38;;;;;;;0.30;0.30;;;;;;;;;;5046083;28;20087;-71
2023/02/04 05:03:04;;;;;;;0.22;0.22;;;;;;;;;;5046764;28;20025;-70
2023/02/04 05:05:30;;;;;;;0.15;0.15;;;;;;;;;;5046215;28;20020;-70
2023/02/04 05:07:56;;;;;;;0.22;0.22;;;;;;;;;;5046526;28;20503;-69
2023/02/04 05:10:22;;;;;;;0.20;0.20;;;;;;;;;;5046370;28;20025;-70
2023/02/04 05:12:48;;;;;;;0.20;0.20;;;;;;;;;;5046532;28;20048;-70
2023/02/04 05:15:14;;;;;;;0.25;0.25;;;;;;;;;;5045684;28;20056;-70
2023/02/04 05:17:40;;;;;;;0.20;0.20;;;;;;;;;;5044723;28;20021;-70
2023/02/04 05:20:06;;;;;;;0.20;0.20;;;;;;;;;;5033496;28;20026;-70
2023/02/04 05:22:32;;;;;;;0.10;0.10;;;;;;;;;;5026147;28;20067;-69
2023/02/04 05:24:58;;;;;;;0.20;0.20;;;;;;;;;;5026491;28;20029;-70
2023/02/04 05:27:24;;;;;;;0.73;0.30;;;;;;;;;;5023474;28;20025;-70
2023/02/04 05:29:50;;;;;;;0.20;0.20;;;;;;;;;;5046271;28;20025;-69
2023/02/04 05:32:16;;;;;;;0.52;0.20;;;;;;;;;;5045959;28;20024;-69
2023/02/04 05:34:42;;;;;;;0.20;0.20;;;;;;;;;;5046149;28;20146;-70
2023/02/04 05:37:08;;;;;;;0.03;0.03;;;;;;;;;;5046355;28;20329;-69
2023/02/04 05:39:34;;;;;;;0.30;0.30;;;;;;;;;;5045983;28;20506;-70
2023/02/04 05:42:00;;;;;;;0.30;0.30;;;;;;;;;;5045934;28;20036;-70
2023/02/04 05:44:26;;;;;;;0.35;0.20;;;;;;;;;;5046038;28;20017;-69
2023/02/04 05:46:51;;;;;;;0.30;0.30;;;;;;;;;;5046001;28;20024;-70
2023/02/04 05:49:17;;;;;;;0.20;0.20;;;;;;;;;;5045857;28;20044;-70
2023/02/04 05:51:43;;;;;;;0.20;0.20;;;;;;;;;;5045800;28;20033;-70
2023/02/04 05:54:10;;;;;;;0.30;0.28;;;;;;;;;;5046059;28;20381;-70
2023/02/04 05:56:36;;;;;;;0.40;0.40;;;;;;;;;;5045769;28;20029;-70
2023/02/04 05:59:02;;;;;;;0.22;0.17;;;;;;;;;;5047167;28;20033;-71
2023/02/04 06:01:28;;;;;;;0.22;0.20;;;;;;;;;;5049375;28;20047;-70
2023/02/04 06:03:53;;;;;;;0.10;0.10;;;;;;;;;;5049546;28;20028;-70
2023/02/04 06:06:19;;;;;;;0.10;0.08;;;;;;;;;;5049500;28;20027;-70
2023/02/04 06:08:45;;;;;;;0.55;0.35;;;;;;;;;;5049866;28;20432;-70
2023/02/04 06:11:11;;;;;;;0.13;0.13;;;;;;;;;;5049489;28;20052;-70
2023/02/04 06:13:37;;;;;;;0.55;0.35;;;;;;;;;;5049237;28;20021;-70
2023/02/04 06:16:03;;;;;;;0.80;0.30;;;;;;;;;;5049616;28;20025;-70
2023/02/04 06:18:29;;;;;;;0.15;0.15;;;;;;;;;;5049304;28;20029;-71
2023/02/04 06:20:55;;;;;;;0.13;0.13;;;;;;;;;;5030705;28;20040;-69
2023/02/04 06:23:21;;;;;;;0.20;0.20;;;;;;;;;;5029219;28;20022;-69
2023/02/04 06:25:48;;;;;;;0.32;0.32;;;;;;;;;;5029404;28;20025;-70
2023/02/04 06:28:14;;;;;;;0.00;0.00;;;;;;;;;;5033090;28;20460;-70
2023/02/04 06:30:40;;;;;;;0.70;0.20;;;;;;;;;;5049035;28;20029;-70
2023/02/04 06:33:06;;;;;;;0.15;0.15;;;;;;;;;;5049239;28;20029;-70
2023/02/04 06:35:32;;;;;;;0.38;0.30;;;;;;;;;;5048729;28;20036;-70
2023/02/04 06:37:58;;;;;;;0.10;0.10;;;;;;;;;;5049222;28;20021;-70
2023/02/04 06:40:24;;;;;;;0.30;0.30;;;;;;;;;;5048869;28;20028;-70
2023/02/04 06:42:50;;;;;;;0.10;0.10;;;;;;;;;;5049257;28;20478;-70
2023/02/04 06:45:16;;;;;;;0.20;0.20;;;;;;;;;;5048674;28;20052;-70
2023/02/04 06:47:42;;;;;;;0.65;0.30;;;;;;;;;;5048839;28;20079;-70
2023/02/04 06:50:08;;;;;;;0.22;0.22;;;;;;;;;;5048875;28;20024;-70
2023/02/04 06:52:34;;;;;;;1.23;0.50;;;;;;;;;;5048872;28;20029;-70
2023/02/04 06:55:00;;;;;;;0.20;0.20;;;;;;;;;;5048791;28;20481;-70
2023/02/04 06:57:26;;;;;;;0.45;0.35;;;;;;;;;;5048542;28;20021;-70
2023/02/04 06:59:52;;;;;;;1.42;0.55;;;;;;;;;;5048336;28;20061;-70
2023/02/04 07:02:18;;;;;;;0.47;0.38;;;;;;;;;;5048386;28;20032;-70
2023/02/04 07:04:44;;;;;;;0.50;0.50;;;;;;;;;;5048470;28;20028;-70
2023/02/04 07:07:10;;;;;;;0.35;0.30;;;;;;;;;;5048564;28;20071;-71
2023/02/04 07:09:36;;;;;;;1.50;0.80;;;;;;;;;;5047991;28;20079;-68
2023/02/04 07:12:02;;;;;;;0.80;0.38;;;;;;;;;;5048454;28;20017;-69
2023/02/04 07:14:28;;;;;;;0.55;0.40;;;;;;;;;;5048282;28;20029;-70
2023/02/04 07:16:57;;;;;;;0.35;0.30;;;;;;;;;;5048399;28;20477;-70
2023/02/04 07:19:22;;;;;;;0.70;0.50;;;;;;;;;;5042428;28;20347;-70
2023/02/04 07:21:52;;;;;;;3.33;0.80;;;;;;;;;;5028401;28;20037;-69
2023/02/04 07:24:18;;;;;;;0.60;0.60;;;;;;;;;;5028276;28;20067;-69
2023/02/04 07:26:44;;;;;;;0.82;0.60;;;;;;;;;;5020647;28;20183;-69
2023/02/04 07:29:10;;;;;;;0.65;0.47;;;;;;;;;;5027720;28;20227;-69
2023/02/04 07:31:36;;;;;;;3.10;0.90;;;;;;;;;;5027948;28;20163;-69
2023/02/04 07:34:02;;;;;;;1.05;0.63;;;;;;;;;;5028339;28;20116;-70
2023/02/04 07:36:28;;;;;;;1.58;0.80;;;;;;;;;;5027916;28;20025;-70
2023/02/04 07:38:54;;;;;;;4.05;0.90;;;;;;;;;;5027985;28;20292;-70
2023/02/04 07:41:20;;;;;;;1.00;0.90;;;;;;;;;;5027767;28;20277;-69
2023/02/04 07:43:46;;;;;;;0.85;0.50;;;;;;;;;;5027872;28;20021;-69
2023/02/04 07:46:12;;;;;;;1.15;0.80;;;;;;;;;;5028089;28;20021;-69
2023/02/04 07:48:38;;;;;;;1.35;0.88;;;;;;;;;;5027502;28;20540;-69
2023/02/04 07:51:04;;;;;;;1.42;0.65;;;;;;;;;;5027901;28;20033;-69
2023/02/04 07:53:30;;;;;;;0.55;0.50;;;;;;;;;;5027405;28;20120;-69
2023/02/04 07:55:56;;;;;;;0.80;0.70;;;;;;;;;;5027827;28;20033;-69
2023/02/04 07:58:22;;;;;;;1.15;0.65;;;;;;;;;;5027443;28;20060;-70
2023/02/04 08:00:48;;;;;;;1.88;0.82;;;;;;;;;;5027462;28;20041;-70
2023/02/04 08:03:14;;;;;;;1.13;0.75;;;;;;;;;;5027597;28;20017;-70
2023/02/04 08:05:40;;;;;;;0.77;0.60;;;;;;;;;;5027118;28;20060;-71
2023/02/04 08:08:06;;;;;;;0.50;0.50;;;;;;;;;;5027467;28;20040;-70
2023/02/04 08:10:32;;;;;;;0.68;0.63;;;;;;;;;;5027002;28;20017;-70
2023/02/04 08:12:58;;;;;;;0.70;0.70;;;;;;;;;;5027251;28;20021;-70
2023/02/04 08:15:24;;;;;;;0.75;0.52;;;;;;;;;;5027143;28;20395;-70
2023/02/04 08:17:49;;;;;;;0.55;0.50;;;;;;;;;;5027528;28;20450;-71
2023/02/04 08:20:17;;;;;;;0.50;0.50;;;;;;;;;;5027082;28;20033;-69
2023/02/04 08:22:43;;;;;;;0.68;0.55;;;;;;;;;;5026328;28;20021;-69
2023/02/04 08:25:10;;;;;;;0.60;0.60;;;;;;;;;;5027273;28;20029;-70
2023/02/04 08:27:36;;;;;;;0.95;0.60;;;;;;;;;;5025492;28;20009;-71
2023/02/04 08:30:03;;;;;;;0.40;0.40;;;;;;;;;;5047210;28;20021;-71
2023/02/04 08:32:30;;;;;;;0.50;0.40;;;;;;;;;;5046964;28;20033;-70
2023/02/04 08:34:56;;;;;;;2.65;0.55;;;;;;;;;;5046615;28;20029;-69
2023/02/04 08:37:22;;;;;;;0.73;0.45;;;;;;;;;;5046782;28;20025;-70
2023/02/04 08:39:48;;;;;;;1.17;0.55;;;;;;;;;;5046747;28;20516;-70
2023/02/04 08:42:15;;;;;;;0.40;0.35;;;;;;;;;;5046666;28;20017;-70
2023/02/04 08:44:41;;;;;;;0.82;0.47;;;;;;;;;;5046509;28;20028;-70
2023/02/04 08:47:07;;;;;;;0.40;0.40;;;;;;;;;;5046852;28;20381;-70
2023/02/04 08:49:33;;;;;;;0.50;0.40;;;;;;;;;;5046463;28;20408;-70
2023/02/04 08:52:01;;;;;;;0.47;0.47;;;;;;;;;;5046894;28;20029;-69
2023/02/04 08:54:27;;;;;;;0.70;0.55;;;;;;;;;;5046348;28;20024;-69
2023/02/04 08:56:53;;;;;;;0.68;0.45;;;;;;;;;;5046566;28;20017;-70
2023/02/04 08:59:20;;;;;;;1.50;0.60;;;;;;;;;;5046173;28;20444;-69
2023/02/04 09:01:48;;;;;;;0.45;0.40;;;;;;;;;;5046345;28;20052;-69
2023/02/04 09:04:14;;;;;;;0.40;0.40;;;;;;;;;;5046467;28;20021;-69
2023/02/04 09:06:40;;;;;;;0.40;0.40;;;;;;;;;;5046280;28;20386;-69
2023/02/04 09:09:06;;;;;;;1.92;0.47;;;;;;;;;;5046343;28;20481;-70
2023/02/04 09:11:31;;;;;;;0.40;0.40;;;;;;;;;;5046216;28;20525;-70
2023/02/04 09:13:57;;;;;;;0.45;0.45;;;;;;;;;;5046351;28;20052;-70
2023/02/04 09:16:23;;;;;;;0.65;0.40;;;;;;;;;;5046428;28;20029;-70
2023/02/04 09:18:49;;;;;;;0.30;0.30;;;;;;;;;;5044996;28;20021;-69
2023/02/04 09:21:15;;;;;;;0.43;0.35;;;;;;;;;;5026292;28;20432;-70
2023/02/04 09:23:41;;;;;;;0.30;0.30;;;;;;;;;;5026302;28;20029;-69
2023/02/04 09:26:07;;;;;;;0.40;0.40;;;;;;;;;;5023901;28;20071;-70
2023/02/04 09:28:33;;;;;;;0.60;0.57;;;;;;;;;;5035977;28;20079;-69
2023/02/04 09:30:59;;;;;;;0.65;0.55;;;;;;;;;;5046268;28;20422;-69
2023/02/04 09:33:25;;;;;;;0.77;0.57;;;;;;;;;;5047934;28;20053;-70
2023/02/04 09:35:52;;;;;;;0.70;0.52;;;;;;;;;;5050286;28;20028;-72
2023/02/04 09:38:17;;;;;;;0.75;0.57;;;;;;;;;;5050229;28;20381;-70
2023/02/04 09:40:46;;;;;;;0.77;0.60;;;;;;;;;;5049880;28;20028;-70
2023/02/04 09:43:14;;;;;;;0.90;0.50;;;;;;;;;;5049989;28;20104;-70
2023/02/04 09:45:40;;;;;;;0.95;0.40;;;;;;;;;;5049903;28;20021;-70
2023/02/04 09:48:07;;;;;;;0.40;0.40;;;;;;;;;;5050029;28;20017;-70
2023/02/04 09:50:33;;;;;;;1.50;0.45;;;;;;;;;;5050128;28;20079;-70
2023/02/04 09:53:01;;;;;;;0.70;0.30;;;;;;;;;;5049971;28;20029;-70
2023/02/04 09:55:35;;;;;;;0.20;0.20;;;;;;;;;;5049795;28;20135;-70
2023/02/04 09:58:01;;;;;;;0.25;0.25;;;;;;;;;;5049838;28;20481;-70
2023/02/04 10:00:28;;;;;;;1.17;0.52;;;;;;;;;;5049612;28;20541;-70
2023/02/04 10:02:58;;;;;;;0.40;0.40;;;;;;;;;;5049890;28;20488;-70
2023/02/04 10:05:27;;;;;;;0.30;0.30;;;;;;;;;;5049806;28;20029;-70
2023/02/04 10:07:53;;;;;;;0.30;0.30;;;;;;;;;;5049762;28;20017;-70
2023/02/04 10:10:23;;;;;;;1.23;0.60;;;;;;;;;;5049913;28;20045;-70
2023/02/04 10:12:50;;;;;;;0.30;0.30;;;;;;;;;;5049497;28;20465;-70
2023/02/04 10:15:18;;;;;;;0.50;0.40;;;;;;;;;;5049977;28;20028;-70
2023/02/04 10:17:45;;;;;;;0.63;0.47;;;;;;;;;;5049662;28;20470;-70
2023/02/04 10:20:15;;;;;;;0.38;0.30;;;;;;;;;;5037200;28;20021;-70
2023/02/04 10:22:41;;;;;;;0.20;0.20;;;;;;;;;;5029454;28;20330;-70
2023/02/04 10:25:17;;;;;;;0.30;0.30;;;;;;;;;;5029460;28;20500;-70
2023/02/04 10:27:59;;;;;;;0.30;0.30;;;;;;;;;;5021223;28;20021;-70
2023/02/04 10:30:34;;;;;;;0.98;0.95;;;;;;;;;;5029471;28;20025;-70
2023/02/04 10:33:00;;;;;;;0.32;0.30;;;;;;;;;;5029474;28;20423;-69
2023/02/04 10:35:26;;;;;;;0.40;0.28;;;;;;;;;;5029152;28;20025;-69
2023/02/04 10:38:03;;;;;;;2.20;0.50;;;;;;;;;;5029471;28;20025;-71
2023/02/04 10:40:33;;;;;;;0.70;0.25;;;;;;;;;;5029055;28;20017;-71
2023/02/04 10:42:59;;;;;;;0.65;0.40;;;;;;;;;;5029226;28;20025;-70
2023/02/04 10:45:26;;;;;;;0.43;0.32;;;;;;;;;;5028291;28;20451;-69
2023/02/04 10:47:53;;;;;;;0.82;0.40;;;;;;;;;;5028866;28;20393;-70
2023/02/04 10:50:20;;;;;;;0.77;0.43;;;;;;;;;;5029194;28;20026;-70
2023/02/04 10:52:51;;;;;;;0.28;0.28;;;;;;;;;;5028782;28;20509;-70
2023/02/04 10:55:18;;;;;;;0.73;0.30;;;;;;;;;;5028851;28;20478;-69
2023/02/04 10:57:46;;;;;;;0.30;0.30;;;;;;;;;;5028991;28;20064;-70
2023/02/04 11:00:17;;;;;;;1.17;0.15;;;;;;;;;;5028753;28;20042;-69
2023/02/04 11:02:44;;;;;;;0.37;0.30;;;;;;;;;;5028579;28;20128;-70
2023/02/04 11:05:24;;;;;;;1.05;0.43;;;;;;;;;;5028932;28;20056;-71
2023/02/04 11:07:50;;;;;;;0.22;0.22;;;;;;;;;;5028581;28;20060;-70
2023/02/04 11:10:19;;;;;;;0.30;0.30;;;;;;;;;;5028604;28;20048;-70
2023/02/04 11:12:54;;;;;;;2.63;0.30;;;;;;;;;;5028515;28;20453;-69
2023/02/04 11:15:49;;;;;;;0.30;0.30;;;;;;;;;;5028744;28;20460;-70
2023/02/04 11:18:26;;;;;;;0.20;0.20;;;;;;;;;;5007899;28;20129;-69
2023/02/04 11:20:54;;;;;;;0.22;0.20;;;;;;;;;;5028176;28;20033;-69
2023/02/04 11:23:26;;;;;;;0.52;0.45;;;;;;;;;;5028488;28;20072;-70
2023/02/04 11:26:12;;;;;;;0.35;0.35;;;;;;;;;;5028109;28;20048;-71
2023/02/04 11:28:58;;;;;;;0.47;0.35;;;;;;;;;;5038839;28;20032;-70
2023/02/04 11:31:24;;;;;;;0.30;0.30;;;;;;;;;;5007342;28;20189;-70
2023/02/04 11:34:02;;;;;;;0.55;0.28;;;;;;;;;;5048007;28;20028;-69
2023/02/04 11:36:28;;;;;;;0.38;0.35;;;;;;;;;;5048078;28;20047;-70
2023/02/04 11:38:54;;;;;;;3.03;0.38;;;;;;;;;;5048080;28;20043;-69
2023/02/04 11:41:27;;;;;;;0.38;0.30;;;;;;;;;;5048110;28;20025;-69
2023/02/04 11:43:53;;;;;;;0.73;0.50;;;;;;;;;;5029924;28;20485;-69
2023/02/04 11:46:19;;;;;;;0.22;0.22;;;;;;;;;;5048049;28;20040;-70
2023/02/04 11:48:45;;;;;;;0.22;0.22;;;;;;;;;;5047854;28;20024;-70
2023/02/04 11:51:16;;;;;;;0.20;0.10;;;;;;;;;;5047963;28;20033;-71
2023/02/04 11:53:42;;;;;;;0.22;0.20;;;;;;;;;;5047668;28;20055;-70
2023/02/04 11:56:17;;;;;;;0.30;0.30;;;;;;;;;;5046710;28;20494;-71
2023/02/04 11:58:42;;;;;;;0.93;0.28;;;;;;;;;;5047745;28;20341;-70
2023/02/04 12:01:19;;;;;;;0.50;0.30;;;;;;;;;;5047579;28;20052;-71
2023/02/04 12:03:47;;;;;;;0.32;0.30;;;;;;;;;;5047317;28;20420;-70
2023/02/04 12:06:20;;;;;;;0.20;0.20;;;;;;;;;;5047581;28;20021;-70
2023/02/04 12:08:46;;;;;;;0.40;0.40;;;;;;;;;;5047804;28;20102;-70
2023/02/04 12:11:26;;;;;;;0.35;0.30;;;;;;;;;;5047644;28;20469;-70
2023/02/04 12:13:53;;;;;;;0.77;0.30;;;;;;;;;;5047282;28;20582;-70
2023/02/04 12:16:19;;;;;;;0.28;0.28;;;;;;;;;;5047537;28;20047;-70
2023/02/04 12:18:45;;;;;;;0.43;0.25;;;;;;;;;;5046225;28;20089;-70
2023/02/04 12:21:13;;;;;;;0.68;0.30;;;;;;;;;;5027402;28;20029;-69
2023/02/04 12:23:39;;;;;;;0.17;0.17;;;;;;;;;;5027238;28;20025;-70
2023/02/04 12:26:05;;;;;;;1.23;0.50;;;;;;;;;;5025262;28;20028;-69
2023/02/04 12:28:31;;;;;;;0.40;0.25;;;;;;;;;;5035566;28;20056;-69
2023/02/04 12:30:57;;;;;;;0.20;0.20;;;;;;;;;;5046898;28;20036;-69
2023/02/04 12:33:23;;;;;;;0.63;0.30;;;;;;;;;;5047050;28;20021;-70
2023/02/04 12:35:49;;;;;;;0.50;0.50;;;;;;;;;;5046780;28;20481;-69
2023/02/04 12:38:15;;;;;;;0.80;0.17;;;;;;;;;;5046979;28;20033;-70
2023/02/04 12:40:41;;;;;;;0.30;0.20;;;;;;;;;;5046771;28;20078;-69
2023/02/04 12:43:07;;;;;;;0.32;0.30;;;;;;;;;;5046948;28;20036;-69
2023/02/04 12:45:33;;;;;;;0.20;0.20;;;;;;;;;;5046599;28;20017;-69
2023/02/04 12:47:59;;;;;;;0.25;0.25;;;;;;;;;;5046796;28;20457;-69
2023/02/04 12:50:26;;;;;;;0.75;0.17;;;;;;;;;;5046663;28;20021;-69
2023/02/04 12:52:52;;;;;;;0.32;0.30;;;;;;;;;;5046735;28;20350;-69
2023/02/04 12:55:19;;;;;;;0.25;0.25;;;;;;;;;;5046848;28;20021;-70
2023/02/04 12:57:45;;;;;;;0.15;0.15;;;;;;;;;;5046727;28;20195;-69
2023/02/04 13:00:12;;;;;;;0.30;0.30;;;;;;;;;;5046484;28;20076;-70
2023/02/04 13:02:38;;;;;;;0.32;0.32;;;;;;;;;;5046250;28;20508;-70
2023/02/04 13:05:04;;;;;;;0.73;0.30;;;;;;;;;;5046660;28;20028;-70
2023/02/04 13:07:30;;;;;;;0.10;0.10;;;;;;;;;;5046201;28;20519;-70
2023/02/04 13:09:56;;;;;;;0.38;0.32;;;;;;;;;;5046268;28;20025;-70
2023/02/04 13:12:22;;;;;;;0.85;0.40;;;;;;;;;;5046529;28;20231;-70
2023/02/04 13:14:48;;;;;;;0.30;0.30;;;;;;;;;;5046349;28;20059;-69
2023/02/04 13:17:14;;;;;;;0.35;0.35;;;;;;;;;;5046510;28;20025;-70
2023/02/04 13:19:40;;;;;;;0.20;0.20;;;;;;;;;;5037987;28;20031;-70
2023/02/04 13:22:06;;;;;;;1.48;0.30;;;;;;;;;;5026678;28;20543;-69
2023/02/04 13:24:32;;;;;;;0.60;0.20;;;;;;;;;;5026494;28;20022;-69
2023/02/04 13:26:58;;;;;;;0.43;0.30;;;;;;;;;;5019665;28;20026;-69
2023/02/04 13:29:24;;;;;;;0.30;0.25;;;;;;;;;;5046445;28;20021;-70
2023/02/04 13:31:52;;;;;;;0.40;0.40;;;;;;;;;;5046090;28;20045;-69
2023/02/04 13:34:19;;;;;;;0.30;0.30;;;;;;;;;;5046172;28;20029;-70
2023/02/04 13:36:45;;;;;;;0.22;0.22;;;;;;;;;;5046019;28;20032;-70
2023/02/04 13:39:11;;;;;;;0.20;0.20;;;;;;;;;;5046368;28;20025;-70
2023/02/04 13:41:37;;;;;;;0.20;0.20;;;;;;;;;;5045779;28;20465;-70
2023/02/04 13:44:03;;;;;;;0.00;0.00;;;;;;;;;;5046472;28;20481;-70
2023/02/04 13:46:29;;;;;;;0.50;0.50;;;;;;;;;;5046523;28;20638;-71
2023/02/04 13:48:55;;;;;;;0.40;0.30;;;;;;;;;;5045893;28;20021;-70
2023/02/04 13:51:21;;;;;;;1.08;0.32;;;;;;;;;;5046345;28;20060;-70
2023/02/04 13:53:47;;;;;;;0.30;0.30;;;;;;;;;;5046124;28;20029;-70
2023/02/04 13:56:13;;;;;;;0.25;0.25;;;;;;;;;;5046250;28;20110;-69
2023/02/04 13:58:42;;;;;;;0.10;0.10;;;;;;;;;;5045899;28;20411;-70
2023/02/04 14:01:09;;;;;;;0.10;0.10;;;;;;;;;;5045837;28;20037;-70
2023/02/04 14:03:35;;;;;;;0.30;0.30;;;;;;;;;;5045990;28;20025;-70
2023/02/04 14:06:00;;;;;;;0.20;0.20;;;;;;;;;;5045762;28;20025;-70
2023/02/04 14:08:27;;;;;;;0.20;0.20;;;;;;;;;;5046155;28;20306;-70
2023/02/04 14:10:53;;;;;;;0.50;0.30;;;;;;;;;;5045903;28;20049;-70
2023/02/04 14:13:19;;;;;;;0.43;0.40;;;;;;;;;;5045878;28;20029;-71
2023/02/04 14:15:45;;;;;;;0.50;0.30;;;;;;;;;;5045682;28;20044;-71
2023/02/04 14:18:11;;;;;;;0.30;0.30;;;;;;;;;;5046033;28;20029;-70
2023/02/04 14:20:37;;;;;;;0.30;0.30;;;;;;;;;;5031868;28;20025;-70
2023/02/04 14:23:04;;;;;;;0.30;0.30;;;;;;;;;;5029740;28;20025;-70
2023/02/04 14:25:30;;;;;;;0.43;0.22;;;;;;;;;;5029416;28;20072;-71
2023/02/04 14:27:56;;;;;;;0.10;0.10;;;;;;;;;;5031296;28;20029;-71
2023/02/04 14:30:23;;;;;;;0.30;0.30;;;;;;;;;;5049337;28;20162;-71
2023/02/04 14:32:49;;;;;;;0.05;0.05;;;;;;;;;;5049138;28;20370;-70
2023/02/04 14:35:16;;;;;;;0.40;0.40;;;;;;;;;;5049217;28;20091;-69
2023/02/04 14:37:41;;;;;;;0.75;0.30;;;;;;;;;;5049414;28;20447;-70
2023/02/04 14:40:09;;;;;;;0.40;0.40;;;;;;;;;;5049317;28;20109;-69